sensor_id;sensor_type;location;lat;lon;timestamp;pressure;altitude;pressure_sealevel;temperature;humidity
56600;BME280;51832;48.152;11.530;2023-02-13T00:04:43;97307.69;;;7.32;65.65
56600;BME280;51832;48.152;11.530;2023-02-13T00:09:43;97298.88;;;7.33;65.08
56600;BME280;51832;48.152;11.530;2023-02-13T00:14:43;97299.63;;;7.60;66.77
56600;BME280;51832;48.152;11.530;2023-02-13T00:19:44;97298.16;;;7.57;65.87
56600;BME280;51832;48.152;11.530;2023-02-13T00:24:44;97279.22;;;7.71;66.05
56600;BME280;51832;48.152;11.530;2023-02-13T00:29:44;97282.78;;;7.62;65.56
56600;BME280;51832;48.152;11.530;2023-02-13T00:34:45;97285.28;;;7.72;65.15
56600;BME280;51832;48.152;11.530;2023-02-13T00:39:45;97272.53;;;7.85;65.29
56600;BME280;51832;48.152;11.530;2023-02-13T00:44:46;97272.84;;;7.74;66.08
56600;BME280;51832;48.152;11.530;2023-02-13T00:49:46;97270.81;;;7.60;67.86
56600;BME280;51832;48.152;11.530;2023-02-13T00:54:46;97267.59;;;7.82;66.30
56600;BME280;51832;48.152;11.530;2023-02-13T00:59:47;97275.63;;;7.80;66.67
56600;BME280;51832;48.152;11.530;2023-02-13T01:04:47;97274.13;;;7.70;67.05
56600;BME280;51832;48.152;11.530;2023-02-13T01:09:48;97270.38;;;7.80;65.42
56600;BME280;51832;48.152;11.530;2023-02-13T01:14:49;97274.84;;;7.88;66.59
56600;BME280;51832;48.152;11.530;2023-02-13T01:19:49;97273.19;;;7.79;66.33
56600;BME280;51832;48.152;11.530;2023-02-13T01:24:50;97267.91;;;7.63;67.35
56600;BME280;51832;48.152;11.530;2023-02-13T01:29:50;97266.31;;;7.86;66.38
56600;BME280;51832;48.152;11.530;2023-02-13T01:34:51;97264.94;;;7.66;66.96
56600;BME280;51832;48.152;11.530;2023-02-13T01:39:51;97258.97;;;7.90;66.46
56600;BME280;51832;48.152;11.530;2023-02-13T01:44:57;97265.75;;;7.58;67.09
56600;BME280;51832;48.152;11.530;2023-02-13T01:55:11;97256.81;;;7.35;68.76
56600;BME280;51832;48.152;11.530;2023-02-13T02:00:14;97257.72;;;7.60;67.51
56600;BME280;51832;48.152;11.530;2023-02-13T02:05:16;97257.72;;;7.52;68.10
56600;BME280;51832;48.152;11.530;2023-02-13T02:10:18;97263.03;;;7.34;68.13
56600;BME280;51832;48.152;11.530;2023-02-13T02:15:20;97269.78;;;7.53;67.75
56600;BME280;51832;48.152;11.530;2023-02-13T02:36:10;97267.69;;;6.88;69.33
56600;BME280;51832;48.152;11.530;2023-02-13T02:52:22;97273.84;;;7.39;66.20
56600;BME280;51832;48.152;11.530;2023-02-13T02:57:29;97270.88;;;7.34;67.55
56600;BME280;51832;48.152;11.530;2023-02-13T03:02:50;97274.19;;;7.44;67.24
56600;BME280;51832;48.152;11.530;2023-02-13T03:08:10;97264.91;;;7.49;66.54
56600;BME280;51832;48.152;11.530;2023-02-13T03:13:16;97271.03;;;7.32;67.42
56600;BME280;51832;48.152;11.530;2023-02-13T03:18:23;97263.75;;;7.10;67.94
56600;BME280;51832;48.152;11.530;2023-02-13T03:24:03;97266.22;;;7.20;67.58
56600;BME280;51832;48.152;11.530;2023-02-13T03:29:17;97275.88;;;7.19;67.53
56600;BME280;51832;48.152;11.530;2023-02-13T03:34:41;97270.13;;;7.16;67.82
56600;BME280;51832;48.152;11.530;2023-02-13T03:40:13;97276.75;;;7.02;67.51
56600;BME280;51832;48.152;11.530;2023-02-13T03:45:25;97286.22;;;6.95;68.71
56600;BME280;51832;48.152;11.530;2023-02-13T03:50:46;97288.75;;;6.61;70.24
56600;BME280;51832;48.152;11.530;2023-02-13T03:55:47;97281.81;;;6.69;69.71
56600;BME280;51832;48.152;11.530;2023-02-13T04:01:08;97276.63;;;6.60;69.75
56600;BME280;51832;48.152;11.530;2023-02-13T04:06:18;97283.16;;;6.56;69.57
56600;BME280;51832;48.152;11.530;2023-02-13T04:16:48;97288.06;;;6.76;69.13
56600;BME280;51832;48.152;11.530;2023-02-13T04:21:56;97278.25;;;6.78;68.72
56600;BME280;51832;48.152;11.530;2023-02-13T04:26:57;97281.97;;;6.94;68.33
56600;BME280;51832;48.152;11.530;2023-02-13T04:31:58;97286.22;;;6.69;69.10
56600;BME280;51832;48.152;11.530;2023-02-13T04:36:58;97276.50;;;6.43;70.48
56600;BME280;51832;48.152;11.530;2023-02-13T04:41:59;97281.97;;;6.32;70.03
56600;BME280;51832;48.152;11.530;2023-02-13T04:46:59;97285.88;;;7.58;87.47
56600;BME280;51832;48.152;11.530;2023-02-13T04:52:00;97275.72;;;10.88;69.61
56600;BME280;51832;48.152;11.530;2023-02-13T04:57:00;97278.38;;;11.76;64.88
56600;BME280;51832;48.152;11.530;2023-02-13T05:02:01;97288.06;;;12.62;50.66
56600;BME280;51832;48.152;11.530;2023-02-13T05:07:01;97286.25;;;8.86;59.97
56600;BME280;51832;48.152;11.530;2023-02-13T05:12:01;97283.56;;;8.05;61.96
56600;BME280;51832;48.152;11.530;2023-02-13T05:17:02;97289.13;;;7.52;64.71
56600;BME280;51832;48.152;11.530;2023-02-13T05:22:02;97282.25;;;7.51;63.99
56600;BME280;51832;48.152;11.530;2023-02-13T05:27:22;97287.38;;;7.00;66.36
56600;BME280;51832;48.152;11.530;2023-02-13T05:32:22;97294.34;;;7.18;65.86
56600;BME280;51832;48.152;11.530;2023-02-13T05:37:23;97291.19;;;6.80;68.19
56600;BME280;51832;48.152;11.530;2023-02-13T05:42:23;97297.84;;;7.00;66.76
56600;BME280;51832;48.152;11.530;2023-02-13T05:47:24;97298.75;;;6.65;67.75
56600;BME280;51832;48.152;11.530;2023-02-13T05:52:25;97286.28;;;6.59;68.46
56600;BME280;51832;48.152;11.530;2023-02-13T05:57:25;97303.31;;;6.63;69.16
56600;BME280;51832;48.152;11.530;2023-02-13T06:02:25;97299.28;;;6.69;67.77
56600;BME280;51832;48.152;11.530;2023-02-13T06:07:26;97308.50;;;6.55;67.97
56600;BME280;51832;48.152;11.530;2023-02-13T06:12:26;97313.28;;;6.42;69.62
56600;BME280;51832;48.152;11.530;2023-02-13T06:17:27;97320.41;;;6.75;67.00
56600;BME280;51832;48.152;11.530;2023-02-13T06:22:27;97319.00;;;6.63;67.06
56600;BME280;51832;48.152;11.530;2023-02-13T06:27:28;97319.47;;;6.59;67.80
56600;BME280;51832;48.152;11.530;2023-02-13T06:32:28;97337.69;;;6.68;68.12
56600;BME280;51832;48.152;11.530;2023-02-13T06:37:29;97333.97;;;6.53;68.65
56600;BME280;51832;48.152;11.530;2023-02-13T06:42:29;97326.09;;;6.00;71.15
56600;BME280;51832;48.152;11.530;2023-02-13T06:47:29;97333.44;;;6.14;69.70
56600;BME280;51832;48.152;11.530;2023-02-13T06:52:30;97337.41;;;6.36;68.46
56600;BME280;51832;48.152;11.530;2023-02-13T06:57:31;97345.75;;;6.57;68.39
56600;BME280;51832;48.152;11.530;2023-02-13T07:02:32;97342.94;;;6.51;68.42
56600;BME280;51832;48.152;11.530;2023-02-13T07:07:34;97355.34;;;6.49;68.40
56600;BME280;51832;48.152;11.530;2023-02-13T07:12:35;97358.84;;;6.57;68.29
56600;BME280;51832;48.152;11.530;2023-02-13T07:17:36;97358.00;;;6.57;68.27
56600;BME280;51832;48.152;11.530;2023-02-13T07:22:37;97357.94;;;6.66;67.45
56600;BME280;51832;48.152;11.530;2023-02-13T07:27:37;97373.47;;;6.32;69.31
56600;BME280;51832;48.152;11.530;2023-02-13T07:32:37;97367.22;;;6.25;69.19
56600;BME280;51832;48.152;11.530;2023-02-13T07:37:38;97379.66;;;6.14;69.71
56600;BME280;51832;48.152;11.530;2023-02-13T07:42:38;97379.13;;;6.55;68.81
56600;BME280;51832;48.152;11.530;2023-02-13T07:47:38;97387.06;;;6.36;68.57
56600;BME280;51832;48.152;11.530;2023-02-13T07:52:39;97396.97;;;7.21;66.56
56600;BME280;51832;48.152;11.530;2023-02-13T07:57:39;97399.88;;;6.39;69.57
56600;BME280;51832;48.152;11.530;2023-02-13T08:02:40;97400.84;;;6.56;68.23
56600;BME280;51832;48.152;11.530;2023-02-13T08:07:40;97394.09;;;6.71;67.36
56600;BME280;51832;48.152;11.530;2023-02-13T08:12:41;97393.44;;;6.87;67.88
56600;BME280;51832;48.152;11.530;2023-02-13T08:17:41;97396.97;;;6.95;67.73
56600;BME280;51832;48.152;11.530;2023-02-13T08:22:41;97386.69;;;7.28;67.34
56600;BME280;51832;48.152;11.530;2023-02-13T08:27:42;97401.13;;;6.88;67.38
56600;BME280;51832;48.152;11.530;2023-02-13T08:32:42;97388.03;;;6.88;66.28
56600;BME280;51832;48.152;11.530;2023-02-13T08:37:43;97384.50;;;6.97;67.25
56600;BME280;51832;48.152;11.530;2023-02-13T08:42:43;97387.53;;;7.54;65.16
56600;BME280;51832;48.152;11.530;2023-02-13T08:47:43;97394.97;;;8.01;63.12
56600;BME280;51832;48.152;11.530;2023-02-13T08:52:44;97394.31;;;7.39;65.00
56600;BME280;51832;48.152;11.530;2023-02-13T08:57:44;97391.19;;;7.61;64.52
56600;BME280;51832;48.152;11.530;2023-02-13T09:02:45;97394.06;;;7.50;64.14
56600;BME280;51832;48.152;11.530;2023-02-13T09:07:45;97399.44;;;8.16;62.68
56600;BME280;51832;48.152;11.530;2023-02-13T09:12:52;97398.13;;;8.12;63.61
56600;BME280;51832;48.152;11.530;2023-02-13T09:17:52;97401.78;;;8.28;63.42
56600;BME280;51832;48.152;11.530;2023-02-13T09:22:54;97410.34;;;8.38;62.05
56600;BME280;51832;48.152;11.530;2023-02-13T09:27:55;97407.63;;;7.79;63.61
56600;BME280;51832;48.152;11.530;2023-02-13T09:32:55;97411.16;;;7.36;65.44
56600;BME280;51832;48.152;11.530;2023-02-13T09:37:59;97411.25;;;7.53;64.70
56600;BME280;51832;48.152;11.530;2023-02-13T09:43:04;97409.13;;;7.48;65.27
56600;BME280;51832;48.152;11.530;2023-02-13T09:48:11;97417.53;;;7.60;62.79
56600;BME280;51832;48.152;11.530;2023-02-13T09:53:21;97402.50;;;7.36;64.64
56600;BME280;51832;48.152;11.530;2023-02-13T09:58:42;97419.66;;;7.38;64.01
56600;BME280;51832;48.152;11.530;2023-02-13T10:03:50;97411.03;;;7.72;63.88
56600;BME280;51832;48.152;11.530;2023-02-13T10:09:00;97420.50;;;7.39;65.07
56600;BME280;51832;48.152;11.530;2023-02-13T10:14:22;97412.56;;;7.48;62.67
56600;BME280;51832;48.152;11.530;2023-02-13T10:19:35;97403.06;;;7.81;62.10
56600;BME280;51832;48.152;11.530;2023-02-13T10:24:43;97414.56;;;7.89;62.02
56600;BME280;51832;48.152;11.530;2023-02-13T10:29:52;97407.16;;;7.50;63.75
56600;BME280;51832;48.152;11.530;2023-02-13T10:40:19;97402.28;;;8.31;60.67
56600;BME280;51832;48.152;11.530;2023-02-13T11:06:33;97391.16;;;8.37;60.68
56600;BME280;51832;48.152;11.530;2023-02-13T11:11:37;97380.13;;;8.17;61.52
56600;BME280;51832;48.152;11.530;2023-02-13T11:21:42;97383.50;;;8.44;60.69
56600;BME280;51832;48.152;11.530;2023-02-13T11:26:49;97376.53;;;8.18;61.34
56600;BME280;51832;48.152;11.530;2023-02-13T11:32:22;97366.94;;;8.01;61.84
56600;BME280;51832;48.152;11.530;2023-02-13T11:37:29;97364.81;;;8.47;60.56
56600;BME280;51832;48.152;11.530;2023-02-13T11:42:31;97370.91;;;9.04;59.02
56600;BME280;51832;48.152;11.530;2023-02-13T11:47:37;97375.31;;;8.47;60.38
56600;BME280;51832;48.152;11.530;2023-02-13T11:52:38;97374.19;;;8.98;59.05
56600;BME280;51832;48.152;11.530;2023-02-13T11:57:38;97379.94;;;9.02;58.20
56600;BME280;51832;48.152;11.530;2023-02-13T12:02:47;97375.34;;;8.96;58.26
56600;BME280;51832;48.152;11.530;2023-02-13T12:07:49;97367.13;;;8.82;58.61
56600;BME280;51832;48.152;11.530;2023-02-13T12:13:02;97374.31;;;8.64;59.89
56600;BME280;51832;48.152;11.530;2023-02-13T12:23:12;97371.72;;;9.13;58.41
56600;BME280;51832;48.152;11.530;2023-02-13T12:34:08;97358.88;;;7.95;61.81
56600;BME280;51832;48.152;11.530;2023-02-13T12:39:31;97342.34;;;8.44;60.73
56600;BME280;51832;48.152;11.530;2023-02-13T12:49:52;97329.34;;;8.35;61.21
56600;BME280;51832;48.152;11.530;2023-02-13T12:55:35;97325.59;;;9.02;59.12
56600;BME280;51832;48.152;11.530;2023-02-13T13:06:16;97325.19;;;9.46;56.96
56600;BME280;51832;48.152;11.530;2023-02-13T13:17:19;97335.13;;;8.95;58.58
56600;BME280;51832;48.152;11.530;2023-02-13T13:27:36;97340.38;;;8.95;57.98
56600;BME280;51832;48.152;11.530;2023-02-13T13:32:40;97328.72;;;8.49;58.88
56600;BME280;51832;48.152;11.530;2023-02-13T13:53:18;97336.88;;;7.79;61.66
56600;BME280;51832;48.152;11.530;2023-02-13T14:03:24;97341.09;;;7.12;64.07
56600;BME280;51832;48.152;11.530;2023-02-13T14:13:39;97336.63;;;8.07;60.73
56600;BME280;51832;48.152;11.530;2023-02-13T14:18:44;97329.38;;;8.51;60.01
56600;BME280;51832;48.152;11.530;2023-02-13T14:23:47;97339.22;;;8.33;59.85
56600;BME280;51832;48.152;11.530;2023-02-13T14:39:26;97325.28;;;8.32;59.85
56600;BME280;51832;48.152;11.530;2023-02-13T14:44:36;97317.84;;;8.19;59.04
56600;BME280;51832;48.152;11.530;2023-02-13T14:49:43;97316.59;;;8.56;59.15
56600;BME280;51832;48.152;11.530;2023-02-13T14:54:49;97321.97;;;9.27;57.88
56600;BME280;51832;48.152;11.530;2023-02-13T15:05:48;97313.97;;;8.88;58.45
56600;BME280;51832;48.152;11.530;2023-02-13T15:10:54;97308.06;;;8.62;59.76
56600;BME280;51832;48.152;11.530;2023-02-13T15:15:58;97319.16;;;8.15;60.66
56600;BME280;51832;48.152;11.530;2023-02-13T15:21:00;97311.59;;;8.20;61.00
56600;BME280;51832;48.152;11.530;2023-02-13T15:26:04;97314.06;;;8.14;60.47
56600;BME280;51832;48.152;11.530;2023-02-13T15:31:20;97318.63;;;8.12;60.44
56600;BME280;51832;48.152;11.530;2023-02-13T15:36:24;97312.81;;;7.84;62.75
56600;BME280;51832;48.152;11.530;2023-02-13T15:41:31;97309.59;;;8.06;61.99
56600;BME280;51832;48.152;11.530;2023-02-13T15:46:34;97296.06;;;8.27;60.48
56600;BME280;51832;48.152;11.530;2023-02-13T15:51:35;97296.25;;;7.75;62.14
56600;BME280;51832;48.152;11.530;2023-02-13T15:56:36;97305.13;;;8.33;61.06
56600;BME280;51832;48.152;11.530;2023-02-13T16:01:38;97307.09;;;8.47;59.63
56600;BME280;51832;48.152;11.530;2023-02-13T16:06:44;97309.16;;;8.19;61.64
56600;BME280;51832;48.152;11.530;2023-02-13T16:11:45;97305.72;;;8.18;60.50
56600;BME280;51832;48.152;11.530;2023-02-13T16:22:29;97315.78;;;8.72;60.05
56600;BME280;51832;48.152;11.530;2023-02-13T16:27:32;97315.41;;;8.34;60.59
56600;BME280;51832;48.152;11.530;2023-02-13T16:32:34;97315.34;;;8.10;61.73
56600;BME280;51832;48.152;11.530;2023-02-13T16:37:49;97320.53;;;7.94;62.59
56600;BME280;51832;48.152;11.530;2023-02-13T16:42:50;97322.28;;;7.35;66.25
56600;BME280;51832;48.152;11.530;2023-02-13T16:48:13;97331.25;;;7.66;64.71
56600;BME280;51832;48.152;11.530;2023-02-13T16:53:14;97334.59;;;7.76;63.92
56600;BME280;51832;48.152;11.530;2023-02-13T16:58:15;97334.06;;;8.23;63.24
56600;BME280;51832;48.152;11.530;2023-02-13T17:03:17;97328.44;;;8.02;63.01
56600;BME280;51832;48.152;11.530;2023-02-13T17:08:17;97334.00;;;7.57;65.07
56600;BME280;51832;48.152;11.530;2023-02-13T17:13:24;97323.59;;;7.73;65.04
56600;BME280;51832;48.152;11.530;2023-02-13T17:18:26;97335.56;;;7.41;65.56
56600;BME280;51832;48.152;11.530;2023-02-13T17:23:26;97334.81;;;7.57;65.53
56600;BME280;51832;48.152;11.530;2023-02-13T17:28:27;97348.63;;;7.33;65.65
56600;BME280;51832;48.152;11.530;2023-02-13T17:33:30;97346.06;;;7.75;65.53
56600;BME280;51832;48.152;11.530;2023-02-13T17:38:33;97342.19;;;7.96;64.39
56600;BME280;51832;48.152;11.530;2023-02-13T17:43:33;97329.31;;;7.68;65.12
56600;BME280;51832;48.152;11.530;2023-02-13T17:48:34;97333.47;;;7.53;65.93
56600;BME280;51832;48.152;11.530;2023-02-13T17:53:34;97326.56;;;7.44;66.44
56600;BME280;51832;48.152;11.530;2023-02-13T17:58:35;97327.31;;;8.12;63.98
56600;BME280;51832;48.152;11.530;2023-02-13T18:03:36;97324.63;;;7.88;64.52
56600;BME280;51832;48.152;11.530;2023-02-13T18:08:36;97326.75;;;7.84;64.48
56600;BME280;51832;48.152;11.530;2023-02-13T18:13:37;97328.88;;;7.47;65.71
56600;BME280;51832;48.152;11.530;2023-02-13T18:18:39;97341.47;;;7.18;66.90
56600;BME280;51832;48.152;11.530;2023-02-13T18:23:40;97328.09;;;6.95;68.30
56600;BME280;51832;48.152;11.530;2023-02-13T18:28:40;97330.75;;;7.03;67.91
56600;BME280;51832;48.152;11.530;2023-02-13T18:33:41;97331.94;;;7.34;67.28
56600;BME280;51832;48.152;11.530;2023-02-13T18:38:41;97330.69;;;7.46;66.27
56600;BME280;51832;48.152;11.530;2023-02-13T18:43:42;97330.63;;;7.64;65.72
56600;BME280;51832;48.152;11.530;2023-02-13T18:48:42;97315.69;;;8.15;64.34
56600;BME280;51832;48.152;11.530;2023-02-13T18:53:42;97319.81;;;8.26;63.71
56600;BME280;51832;48.152;11.530;2023-02-13T18:58:43;97330.91;;;8.03;63.87
56600;BME280;51832;48.152;11.530;2023-02-13T19:03:47;97330.03;;;7.87;65.09
56600;BME280;51832;48.152;11.530;2023-02-13T19:08:48;97334.06;;;8.15;64.28
56600;BME280;51832;48.152;11.530;2023-02-13T19:13:53;97330.41;;;7.24;67.46
56600;BME280;51832;48.152;11.530;2023-02-13T19:18:55;97337.75;;;7.88;65.63
56600;BME280;51832;48.152;11.530;2023-02-13T19:23:55;97332.72;;;8.03;64.70
56600;BME280;51832;48.152;11.530;2023-02-13T19:28:57;97328.06;;;7.46;64.53
56600;BME280;51832;48.152;11.530;2023-02-13T19:33:58;97331.53;;;7.89;64.27
56600;BME280;51832;48.152;11.530;2023-02-13T19:39:03;97315.28;;;7.85;63.48
56600;BME280;51832;48.152;11.530;2023-02-13T19:44:03;97329.28;;;8.02;63.52
56600;BME280;51832;48.152;11.530;2023-02-13T19:49:04;97320.63;;;8.18;63.17
56600;BME280;51832;48.152;11.530;2023-02-13T19:54:06;97330.53;;;7.48;65.27
56600;BME280;51832;48.152;11.530;2023-02-13T19:59:09;97334.16;;;7.55;64.28
56600;BME280;51832;48.152;11.530;2023-02-13T20:04:12;97332.13;;;7.41;65.06
56600;BME280;51832;48.152;11.530;2023-02-13T20:09:13;97324.41;;;7.73;64.76
56600;BME280;51832;48.152;11.530;2023-02-13T20:14:13;97326.00;;;7.66;64.96
56600;BME280;51832;48.152;11.530;2023-02-13T20:19:14;97342.69;;;7.99;64.23
56600;BME280;51832;48.152;11.530;2023-02-13T20:24:15;97334.53;;;7.68;64.40
56600;BME280;51832;48.152;11.530;2023-02-13T20:29:15;97328.50;;;7.34;65.60
56600;BME280;51832;48.152;11.530;2023-02-13T20:34:16;97329.03;;;7.45;64.67
56600;BME280;51832;48.152;11.530;2023-02-13T20:39:16;97324.25;;;7.07;66.61
56600;BME280;51832;48.152;11.530;2023-02-13T20:44:17;97326.91;;;6.89;66.30
56600;BME280;51832;48.152;11.530;2023-02-13T20:49:21;97329.94;;;7.02;64.84
56600;BME280;51832;48.152;11.530;2023-02-13T20:54:22;97334.69;;;6.81;66.86
56600;BME280;51832;48.152;11.530;2023-02-13T20:59:22;97335.00;;;7.04;65.42
56600;BME280;51832;48.152;11.530;2023-02-13T21:04:23;97329.03;;;6.68;66.45
56600;BME280;51832;48.152;11.530;2023-02-13T21:09:23;97333.28;;;6.51;67.55
56600;BME280;51832;48.152;11.530;2023-02-13T21:14:25;97328.13;;;6.24;67.80
56600;BME280;51832;48.152;11.530;2023-02-13T21:19:25;97332.25;;;6.26;67.35
56600;BME280;51832;48.152;11.530;2023-02-13T21:24:25;97324.78;;;6.31;67.72
56600;BME280;51832;48.152;11.530;2023-02-13T21:29:26;97330.44;;;6.09;68.00
56600;BME280;51832;48.152;11.530;2023-02-13T21:34:26;97323.13;;;6.66;66.86
56600;BME280;51832;48.152;11.530;2023-02-13T21:39:27;97316.50;;;6.36;66.75
56600;BME280;51832;48.152;11.530;2023-02-13T21:44:27;97307.88;;;6.08;67.75
56600;BME280;51832;48.152;11.530;2023-02-13T21:49:28;97291.25;;;6.70;66.35
56600;BME280;51832;48.152;11.530;2023-02-13T21:54:28;97289.88;;;6.84;65.18
56600;BME280;51832;48.152;11.530;2023-02-13T21:59:28;97289.81;;;6.50;66.28
56600;BME280;51832;48.152;11.530;2023-02-13T22:04:29;97296.25;;;6.38;66.61
56600;BME280;51832;48.152;11.530;2023-02-13T22:09:30;97282.34;;;6.37;65.54
56600;BME280;51832;48.152;11.530;2023-02-13T22:14:30;97276.69;;;6.24;66.83
56600;BME280;51832;48.152;11.530;2023-02-13T22:19:31;97270.53;;;6.16;66.78
56600;BME280;51832;48.152;11.530;2023-02-13T22:24:31;97267.97;;;6.59;65.93
56600;BME280;51832;48.152;11.530;2023-02-13T22:29:31;97271.06;;;6.55;65.85
56600;BME280;51832;48.152;11.530;2023-02-13T22:34:32;97265.34;;;6.59;65.06
56600;BME280;51832;48.152;11.530;2023-02-13T22:39:32;97249.63;;;6.33;65.74
56600;BME280;51832;48.152;11.530;2023-02-13T22:44:33;97262.09;;;6.04;67.58
56600;BME280;51832;48.152;11.530;2023-02-13T22:49:33;97267.88;;;6.07;67.05
56600;BME280;51832;48.152;11.530;2023-02-13T22:54:35;97265.63;;;6.13;66.55
56600;BME280;51832;48.152;11.530;2023-02-13T22:59:36;97276.97;;;6.39;65.64
56600;BME280;51832;48.152;11.530;2023-02-13T23:04:36;97275.13;;;6.14;66.18
56600;BME280;51832;48.152;11.530;2023-02-13T23:09:37;97268.44;;;6.01;66.45
56600;BME280;51832;48.152;11.530;2023-02-13T23:14:37;97262.22;;;5.85;67.29
56600;BME280;51832;48.152;11.530;2023-02-13T23:19:38;97278.91;;;6.01;65.64
56600;BME280;51832;48.152;11.530;2023-02-13T23:24:38;97283.56;;;6.25;66.95
56600;BME280;51832;48.152;11.530;2023-02-13T23:29:39;97291.44;;;6.16;67.73
56600;BME280;51832;48.152;11.530;2023-02-13T23:34:39;97286.56;;;5.85;68.67
56600;BME280;51832;48.152;11.530;2023-02-13T23:39:39;97273.66;;;6.01;68.26
56600;BME280;51832;48.152;11.530;2023-02-13T23:44:40;97268.03;;;5.79;67.43
56600;BME280;51832;48.152;11.530;2023-02-13T23:49:40;97262.09;;;5.86;68.48
56600;BME280;51832;48.152;11.530;2023-02-13T23:54:41;97264.31;;;5.81;67.91
56600;BME280;51832;48.152;11.530;2023-02-13T23:59:41;97262.50;;;5.36;68.37
